createdAt,value
2022-09-06T00:00:33.520Z,62.88
2022-09-06T00:01:35.560Z,62.76
2022-09-06T00:02:38.153Z,62.73
2022-09-06T00:03:40.610Z,63.10
2022-09-06T00:04:43.173Z,62.87
2022-09-06T00:05:45.486Z,62.72
2022-09-06T00:06:47.525Z,62.55
2022-09-06T00:07:49.478Z,62.49
2022-09-06T00:08:51.247Z,62.74
2022-09-06T00:09:53.230Z,62.68
2022-09-06T00:11:01.034Z,62.75
2022-09-06T00:12:03.195Z,62.82
2022-09-06T00:13:07.183Z,62.75
2022-09-06T00:14:09.101Z,62.79
2022-09-06T00:15:11.093Z,62.65
2022-09-06T00:16:17.630Z,63.18
2022-09-06T00:17:20.375Z,63.07
2022-09-06T00:18:22.553Z,63.07
2022-09-06T00:19:24.779Z,62.84
2022-09-06T00:20:29.106Z,63.40
2022-09-06T00:21:31.442Z,63.25
2022-09-06T00:22:33.577Z,63.38
2022-09-06T00:23:35.631Z,63.87
2022-09-06T00:24:37.710Z,63.96
2022-09-06T00:25:39.757Z,63.85
2022-09-06T00:26:41.678Z,63.63
2022-09-06T00:27:43.824Z,63.35
2022-09-06T00:28:46.013Z,63.44
2022-09-06T00:29:48.428Z,63.38
2022-09-06T00:30:50.744Z,63.29
2022-09-06T00:31:52.913Z,62.83
2022-09-06T00:32:55.452Z,63.06
2022-09-06T00:33:57.494Z,62.78
2022-09-06T00:34:59.831Z,62.98
2022-09-06T00:36:02.516Z,62.67
2022-09-06T00:37:04.673Z,62.64
2022-09-06T00:38:06.842Z,62.52
2022-09-06T00:39:08.970Z,62.39
2022-09-06T00:40:12.224Z,62.54
2022-09-06T00:41:15.904Z,62.73
2022-09-06T00:42:18.400Z,62.20
2022-09-06T00:43:20.547Z,62.50
2022-09-06T00:44:22.574Z,62.63
2022-09-06T00:45:27.317Z,62.53
2022-09-06T00:46:32.172Z,62.16
2022-09-06T00:47:37.475Z,62.05
2022-09-06T00:48:41.790Z,62.48
2022-09-06T00:49:47.738Z,62.25
2022-09-06T00:50:53.640Z,62.32
2022-09-06T00:51:59.410Z,62.61
2022-09-06T00:53:01.893Z,62.41
2022-09-06T00:54:06.296Z,62.79
2022-09-06T00:55:09.492Z,62.92
2022-09-06T00:56:13.923Z,62.92
2022-09-06T00:57:17.402Z,62.80
2022-09-06T00:58:19.698Z,63.00
2022-09-06T00:59:28.460Z,63.10
2022-09-06T01:00:30.770Z,63.34
2022-09-06T01:01:33.525Z,63.33
2022-09-06T01:02:36.506Z,63.23
2022-09-06T01:03:39.481Z,63.36
2022-09-06T01:04:44.865Z,63.29
2022-09-06T01:05:59.277Z,62.97
2022-09-06T01:08:26.960Z,63.40
2022-09-06T01:09:35.692Z,63.48
2022-09-06T01:12:22.427Z,64.74
2022-09-06T01:13:46.874Z,64.67
2022-09-06T01:16:31.458Z,64.94
2022-09-06T01:17:43.086Z,64.88
2022-09-06T01:18:54.755Z,64.76
2022-09-06T01:20:21.257Z,65.30
2022-09-06T01:21:38.904Z,65.53
2022-09-06T01:22:59.836Z,65.73
2022-09-06T01:24:22.573Z,65.44
2022-09-06T01:25:43.522Z,66.05
2022-09-06T01:27:07.399Z,66.45
2022-09-06T01:28:18.746Z,66.73
2022-09-06T01:29:45.823Z,66.83
2022-09-06T01:30:57.973Z,67.06
2022-09-06T01:32:12.426Z,67.56
2022-09-06T01:33:20.852Z,67.63
2022-09-06T01:34:32.630Z,67.72
2022-09-06T01:35:47.136Z,67.82
2022-09-06T01:37:10.186Z,68.02
2022-09-06T01:38:10.001Z,68.08
2022-09-06T01:39:15.624Z,67.70
2022-09-06T01:40:18.261Z,67.48
2022-09-06T01:41:20.324Z,67.71
2022-09-06T01:42:29.050Z,67.69
2022-09-06T01:43:34.721Z,67.40
2022-09-06T01:44:38.793Z,67.31
2022-09-06T01:46:04.432Z,67.51
2022-09-06T01:47:19.057Z,67.57
2022-09-06T01:48:44.094Z,67.63
2022-09-06T01:49:52.929Z,67.41
2022-09-06T01:51:10.433Z,67.35
2022-09-06T01:54:01.494Z,67.30
2022-09-06T01:55:29.494Z,67.61
2022-09-06T01:56:59.312Z,67.47
2022-09-06T01:58:23.367Z,68.03
2022-09-06T01:59:44.108Z,68.03
2022-09-06T02:01:09.876Z,68.16
2022-09-06T02:02:37.366Z,67.99
2022-09-06T02:05:17.338Z,68.50
2022-09-06T02:06:23.795Z,68.56
2022-09-06T02:07:28.996Z,68.51
2022-09-06T02:08:34.720Z,68.50
2022-09-06T02:09:40.187Z,68.22
2022-09-06T02:10:48.677Z,68.15
2022-09-06T02:11:59.421Z,68.28
2022-09-06T02:13:05.095Z,68.45
2022-09-06T02:14:10.702Z,68.57
2022-09-06T02:15:28.342Z,68.41
2022-09-06T02:16:35.090Z,68.26
2022-09-06T02:17:41.818Z,68.72
2022-09-06T02:18:49.988Z,68.33
2022-09-06T02:19:58.348Z,68.56
2022-09-06T02:21:02.860Z,68.61
2022-09-06T02:22:08.511Z,68.64
2022-09-06T02:23:11.982Z,68.84
2022-09-06T02:25:31.235Z,69.31
2022-09-06T02:26:37.002Z,69.04
2022-09-06T02:27:39.620Z,69.18
2022-09-06T02:28:41.863Z,69.48
2022-09-06T02:29:44.115Z,69.44
2022-09-06T02:30:49.927Z,69.21
2022-09-06T02:32:10.290Z,69.30
2022-09-06T02:33:15.952Z,69.04
2022-09-06T02:34:19.827Z,68.80
2022-09-06T02:35:22.648Z,68.87
2022-09-06T02:36:25.161Z,68.91
2022-09-06T02:37:27.207Z,69.32
2022-09-06T02:38:30.510Z,69.22
2022-09-06T02:39:32.874Z,69.65
2022-09-06T02:40:35.599Z,69.61
2022-09-06T02:41:40.432Z,70.00
2022-09-06T02:42:42.618Z,70.24
2022-09-06T02:43:44.589Z,70.24
2022-09-06T02:44:46.362Z,70.26
2022-09-06T02:45:48.293Z,70.33
2022-09-06T02:46:53.859Z,70.44
2022-09-06T02:47:54.460Z,70.51
2022-09-06T02:48:56.435Z,70.69
2022-09-06T02:49:58.994Z,70.54
2022-09-06T02:51:06.309Z,70.57
2022-09-06T02:52:08.410Z,70.22
2022-09-06T02:53:12.754Z,70.21
2022-09-06T02:54:14.885Z,70.45
2022-09-06T02:55:16.811Z,70.52
2022-09-06T02:56:20.434Z,70.59
2022-09-06T02:57:22.460Z,70.42
2022-09-06T02:58:24.550Z,70.22
2022-09-06T02:59:26.656Z,69.84
2022-09-06T03:00:29.947Z,70.05
2022-09-06T03:01:32.733Z,69.60
2022-09-06T03:02:35.060Z,69.16
2022-09-06T03:03:37.175Z,68.92
2022-09-06T03:04:39.241Z,68.54
2022-09-06T03:05:42.054Z,68.29
2022-09-06T03:06:44.334Z,68.20
2022-09-06T03:07:46.376Z,68.12
2022-09-06T03:08:48.480Z,68.01
2022-09-06T03:09:50.754Z,67.64
2022-09-06T03:10:54.982Z,67.71
2022-09-06T03:11:57.607Z,67.93
2022-09-06T03:13:00.176Z,67.66
2022-09-06T03:14:02.218Z,67.71
2022-09-06T03:15:05.510Z,67.43
2022-09-06T03:16:08.133Z,67.75
2022-09-06T03:17:10.266Z,67.69
2022-09-06T03:18:12.382Z,67.78
2022-09-06T03:19:14.418Z,67.94
2022-09-06T03:20:17.717Z,68.18
2022-09-06T03:21:19.952Z,68.32
2022-09-06T03:22:21.905Z,68.57
2022-09-06T03:23:26.830Z,68.51
2022-09-06T03:24:31.076Z,68.65
2022-09-06T03:25:33.257Z,68.18
2022-09-06T03:26:35.802Z,68.44
2022-09-06T03:27:39.009Z,68.24
2022-09-06T03:28:41.126Z,68.49
2022-09-06T03:29:43.093Z,68.25
2022-09-06T03:30:47.924Z,67.94
2022-09-06T03:31:50.189Z,68.61
2022-09-06T03:32:53.448Z,69.04
2022-09-06T03:33:55.504Z,69.48
2022-09-06T03:34:57.977Z,69.60
2022-09-06T03:36:04.343Z,69.58
2022-09-06T03:37:10.112Z,69.81
2022-09-06T03:38:20.521Z,70.43
2022-09-06T03:39:22.594Z,70.72
2022-09-06T03:40:25.260Z,70.57
2022-09-06T03:41:27.280Z,70.57
2022-09-06T03:42:29.421Z,70.26
2022-09-06T03:43:31.954Z,70.22
2022-09-06T03:44:33.996Z,69.95
2022-09-06T03:45:35.973Z,70.18
2022-09-06T03:46:39.232Z,69.88
2022-09-06T03:47:42.024Z,69.77
2022-09-06T03:48:47.184Z,69.77
2022-09-06T03:49:49.778Z,69.92
2022-09-06T03:50:54.714Z,70.21
2022-09-06T03:51:56.816Z,70.21
2022-09-06T03:52:58.765Z,69.98
2022-09-06T03:54:00.741Z,69.80
2022-09-06T03:55:04.079Z,69.25
2022-09-06T03:56:07.476Z,68.99
2022-09-06T03:57:09.840Z,68.68
2022-09-06T03:58:11.890Z,68.30
2022-09-06T03:59:13.946Z,68.27
2022-09-06T04:00:18.721Z,68.04
2022-09-06T04:01:20.849Z,68.03
2022-09-06T04:02:23.026Z,68.19
2022-09-06T04:03:25.108Z,68.17
2022-09-06T04:04:27.206Z,68.23
2022-09-06T04:05:29.232Z,68.69
2022-09-06T04:06:31.831Z,68.96
2022-09-06T04:07:33.921Z,69.14
2022-09-06T04:08:37.108Z,69.00
2022-09-06T04:09:39.219Z,69.17
2022-09-06T04:10:43.513Z,68.97
2022-09-06T04:11:49.098Z,69.61
2022-09-06T04:12:55.420Z,69.70
2022-09-06T04:14:03.661Z,69.82
2022-09-06T04:15:08.834Z,70.11
2022-09-06T04:16:12.690Z,70.47
2022-09-06T04:17:14.796Z,70.43
2022-09-06T04:18:16.956Z,70.28
2022-09-06T04:19:20.025Z,69.87
2022-09-06T04:20:22.862Z,69.83
2022-09-06T04:21:25.035Z,69.97
2022-09-06T04:22:27.105Z,70.18
2022-09-06T04:23:29.374Z,69.93
2022-09-06T04:24:32.346Z,70.19
2022-09-06T04:25:34.541Z,69.85
2022-09-06T04:26:37.002Z,70.15
2022-09-06T04:27:39.045Z,70.28
2022-09-06T04:28:41.062Z,70.03
2022-09-06T04:29:43.052Z,69.89
2022-09-06T04:30:54.117Z,69.92
2022-09-06T04:31:56.289Z,69.75
2022-09-06T04:32:58.515Z,69.49
2022-09-06T04:34:00.573Z,69.16
2022-09-06T04:35:03.231Z,68.98
2022-09-06T04:36:08.519Z,68.91
2022-09-06T04:37:10.696Z,69.01
2022-09-06T04:38:14.875Z,69.17
2022-09-06T04:39:16.985Z,69.29
2022-09-06T04:40:19.808Z,68.95
2022-09-06T04:41:22.448Z,69.07
2022-09-06T04:42:24.644Z,69.02
2022-09-06T04:43:26.631Z,69.19
2022-09-06T04:44:28.599Z,68.80
2022-09-06T04:45:32.803Z,68.93
2022-09-06T04:46:34.927Z,68.76
2022-09-06T04:47:37.172Z,68.97
2022-09-06T04:48:39.211Z,69.29
2022-09-06T04:49:42.272Z,68.84
2022-09-06T04:50:44.444Z,68.49
2022-09-06T04:51:46.497Z,68.01
2022-09-06T04:52:48.664Z,68.65
2022-09-06T04:53:51.324Z,68.83
2022-09-06T04:54:53.366Z,68.68
2022-09-06T04:55:57.398Z,68.99
2022-09-06T04:56:59.572Z,69.38
2022-09-06T04:58:01.517Z,69.84
2022-09-06T04:59:03.654Z,70.82
2022-09-06T05:00:07.309Z,70.66
2022-09-06T05:01:10.842Z,71.11
2022-09-06T05:02:12.935Z,70.77
2022-09-06T05:03:15.321Z,70.74
2022-09-06T05:04:17.580Z,70.52
2022-09-06T05:05:19.727Z,69.85
2022-09-06T05:06:23.856Z,69.83
2022-09-06T05:07:25.960Z,68.94
2022-09-06T05:08:28.501Z,68.51
2022-09-06T05:09:32.491Z,69.12
2022-09-06T05:10:34.765Z,68.98
2022-09-06T05:11:36.805Z,69.29
2022-09-06T05:12:43.651Z,69.49
2022-09-06T05:13:44.544Z,70.28
2022-09-06T05:14:46.706Z,70.17
2022-09-06T05:15:48.546Z,69.91
2022-09-06T05:16:51.916Z,70.39
2022-09-06T05:18:02.856Z,70.33
2022-09-06T05:19:04.872Z,70.53
2022-09-06T05:20:09.127Z,70.77
2022-09-06T05:21:11.159Z,71.11
2022-09-06T05:22:13.615Z,71.47
2022-09-06T05:23:16.144Z,71.82
2022-09-06T05:24:19.090Z,72.47
2022-09-06T05:25:21.301Z,72.37
2022-09-06T05:26:23.557Z,72.37
2022-09-06T05:27:25.621Z,72.57
2022-09-06T05:28:28.750Z,72.76
2022-09-06T05:29:31.124Z,72.33
2022-09-06T05:30:33.673Z,72.91
2022-09-06T05:31:35.751Z,72.60
2022-09-06T05:32:40.043Z,72.91
2022-09-06T05:33:42.104Z,73.03
2022-09-06T05:34:44.142Z,73.25
2022-09-06T05:35:47.249Z,73.72
2022-09-06T05:36:49.569Z,73.57
2022-09-06T05:37:51.350Z,73.37
2022-09-06T05:38:54.648Z,72.71
2022-09-06T05:39:56.900Z,71.50
2022-09-06T05:40:59.145Z,71.50
2022-09-06T05:42:01.806Z,71.87
2022-09-06T05:43:03.648Z,72.12
2022-09-06T05:44:05.608Z,71.95
2022-09-06T05:45:08.231Z,70.56
2022-09-06T05:46:12.885Z,70.16
2022-09-06T05:47:15.068Z,70.16
2022-09-06T05:48:17.070Z,69.87
2022-09-06T05:49:19.062Z,69.16
2022-09-06T05:50:22.451Z,69.40
2022-09-06T05:51:24.623Z,69.38
2022-09-06T05:52:28.741Z,69.49
2022-09-06T05:53:33.576Z,69.21
2022-09-06T05:54:35.705Z,69.59
2022-09-06T05:55:42.396Z,70.17
2022-09-06T05:56:42.590Z,69.89
2022-09-06T05:57:45.760Z,69.67
2022-09-06T05:58:47.653Z,69.18
2022-09-06T05:59:49.641Z,69.04
2022-09-06T06:00:51.863Z,69.04
2022-09-06T06:01:54.608Z,68.70
2022-09-06T06:02:56.656Z,68.70
2022-09-06T06:04:04.731Z,68.60
2022-09-06T06:05:09.775Z,68.16
2022-09-06T06:06:13.334Z,68.45
2022-09-06T06:07:15.517Z,68.05
2022-09-06T06:08:17.478Z,67.95
2022-09-06T06:09:19.564Z,67.62
2022-09-06T06:10:23.489Z,67.78
2022-09-06T06:11:26.546Z,68.21
2022-09-06T06:12:28.562Z,67.74
2022-09-06T06:13:31.709Z,67.51
2022-09-06T06:14:33.795Z,67.37
2022-09-06T06:15:35.960Z,67.32
2022-09-06T06:16:38.220Z,66.94
2022-09-06T06:17:41.083Z,66.96
2022-09-06T06:18:43.136Z,66.91
2022-09-06T06:19:44.941Z,66.20
2022-09-06T06:20:46.972Z,65.72
2022-09-06T06:21:49.006Z,65.85
2022-09-06T06:22:51.048Z,66.15
2022-09-06T06:23:55.350Z,65.82
2022-09-06T06:24:57.444Z,63.79
2022-09-06T06:25:59.746Z,64.32
2022-09-06T06:27:01.795Z,64.52
2022-09-06T06:28:03.835Z,65.02
2022-09-06T06:29:06.314Z,64.87
2022-09-06T06:30:09.573Z,65.57
2022-09-06T06:31:11.892Z,64.94
2022-09-06T06:32:14.730Z,64.93
2022-09-06T06:33:16.836Z,64.81
2022-09-06T06:34:18.931Z,64.60
2022-09-06T06:35:20.905Z,64.96
2022-09-06T06:36:26.167Z,64.29
2022-09-06T06:37:29.343Z,64.44
2022-09-06T06:38:36.269Z,64.11
2022-09-06T06:39:38.516Z,64.16
2022-09-06T06:40:44.324Z,63.89
2022-09-06T06:41:46.549Z,63.47
2022-09-06T06:43:02.665Z,64.20
2022-09-06T06:44:06.043Z,64.23
2022-09-06T06:45:09.469Z,64.13
2022-09-06T06:46:14.943Z,63.78
2022-09-06T06:47:17.698Z,63.45
2022-09-06T06:48:20.822Z,62.74
2022-09-06T06:49:23.931Z,63.34
2022-09-06T06:50:26.966Z,62.98
2022-09-06T06:51:31.779Z,63.41
2022-09-06T06:52:34.534Z,63.45
2022-09-06T06:53:36.771Z,65.45
2022-09-06T06:54:38.821Z,64.28
2022-09-06T06:55:44.435Z,62.32
2022-09-06T06:56:47.562Z,62.10
2022-09-06T06:57:53.776Z,61.64
2022-09-06T06:58:57.656Z,61.55
2022-09-06T07:00:00.207Z,61.89
2022-09-06T07:01:02.389Z,61.75
2022-09-06T07:02:05.501Z,61.85
2022-09-06T07:03:08.846Z,60.99
2022-09-06T07:04:10.842Z,62.15
2022-09-06T07:06:19.154Z,61.29
2022-09-06T07:08:26.023Z,61.35
2022-09-06T07:10:33.771Z,60.02
2022-09-06T07:11:37.364Z,60.46
2022-09-06T07:12:41.422Z,60.10
2022-09-06T07:13:44.336Z,60.35
2022-09-06T07:14:47.012Z,60.66
2022-09-06T07:15:49.224Z,60.66
2022-09-06T07:16:51.378Z,60.89
2022-09-06T07:17:57.098Z,60.77
2022-09-06T07:19:00.642Z,60.59
2022-09-06T07:22:21.243Z,61.03
2022-09-06T07:24:27.882Z,59.96
2022-09-06T07:25:30.242Z,60.16
2022-09-06T07:26:33.041Z,60.16
2022-09-06T07:27:50.795Z,60.25
2022-09-06T07:28:39.175Z,60.11
2022-09-06T07:29:41.131Z,60.99
2022-09-06T07:30:43.313Z,60.13
2022-09-06T07:32:50.208Z,60.47
2022-09-06T07:33:55.627Z,60.00
2022-09-06T07:34:57.952Z,61.19
2022-09-06T07:36:03.434Z,61.19
2022-09-06T07:37:05.647Z,60.25
2022-09-06T07:38:07.641Z,59.81
2022-09-06T07:39:09.783Z,58.62
2022-09-06T07:40:13.715Z,58.21
2022-09-06T07:41:18.703Z,58.48
2022-09-06T07:42:20.711Z,58.48
2022-09-06T07:43:24.099Z,58.79
2022-09-06T07:44:26.224Z,60.45
2022-09-06T07:45:28.272Z,59.38
2022-09-06T07:46:31.334Z,59.01
2022-09-06T07:48:40.155Z,59.96
2022-09-06T07:51:48.851Z,59.33
2022-09-06T07:54:12.943Z,57.93
2022-09-06T07:55:00.325Z,56.78
2022-09-06T07:56:05.915Z,56.09
2022-09-06T07:57:08.004Z,56.67
2022-09-06T07:58:10.044Z,56.82
2022-09-06T07:59:12.101Z,56.31
2022-09-06T08:00:14.872Z,56.07
2022-09-06T08:01:20.800Z,55.48
2022-09-06T08:02:23.129Z,55.70
2022-09-06T08:03:26.116Z,56.61
2022-09-06T08:04:28.463Z,56.83
2022-09-06T08:07:41.876Z,55.61
2022-09-06T08:08:59.831Z,55.58
2022-09-06T08:09:48.241Z,56.43
2022-09-06T08:10:50.383Z,56.43
2022-09-06T08:11:53.009Z,56.42
2022-09-06T08:12:55.541Z,54.74
2022-09-06T08:13:59.364Z,53.10
2022-09-06T08:15:01.859Z,54.17
2022-09-06T08:16:07.712Z,54.29
2022-09-06T08:17:10.862Z,53.36
2022-09-06T08:18:12.793Z,53.27
2022-09-06T08:19:15.663Z,52.47
2022-09-06T08:20:19.387Z,50.79
2022-09-06T08:21:23.777Z,49.89
2022-09-06T08:22:26.305Z,51.02
2022-09-06T08:23:28.897Z,50.40
2022-09-06T08:24:31.419Z,50.06
2022-09-06T08:25:33.827Z,52.03
2022-09-06T08:26:38.095Z,50.11
2022-09-06T08:27:40.770Z,47.33
2022-09-06T08:28:44.074Z,46.12
2022-09-06T08:29:46.372Z,46.88
2022-09-06T08:30:48.625Z,46.12
2022-09-06T08:31:51.712Z,47.04
2022-09-06T08:32:53.806Z,46.59
2022-09-06T08:33:57.977Z,47.00
2022-09-06T08:34:59.972Z,47.58
2022-09-06T08:36:03.217Z,47.45
2022-09-06T08:37:05.851Z,47.03
2022-09-06T08:38:08.455Z,46.72
2022-09-06T08:39:11.389Z,47.67
2022-09-06T08:40:17.415Z,47.40
2022-09-06T08:41:26.293Z,48.52
2022-09-06T08:42:29.990Z,47.81
2022-09-06T08:43:32.101Z,48.90
2022-09-06T08:44:57.250Z,48.41
2022-09-06T08:45:47.152Z,48.01
2022-09-06T08:46:59.523Z,48.22
2022-09-06T08:48:02.085Z,47.81
2022-09-06T08:49:06.545Z,47.29
2022-09-06T08:50:10.650Z,48.40
2022-09-06T08:51:50.167Z,47.38
2022-09-06T08:53:23.316Z,47.41
2022-09-06T08:54:32.522Z,48.00
2022-09-06T08:55:44.027Z,47.88
2022-09-06T08:57:21.752Z,47.53
2022-09-06T08:58:45.945Z,46.85
2022-09-06T08:59:51.571Z,46.28
2022-09-06T09:00:57.393Z,45.90
2022-09-06T09:02:20.945Z,46.15
2022-09-06T09:03:27.051Z,46.72
2022-09-06T09:04:31.325Z,46.55
2022-09-06T09:05:35.739Z,47.30
2022-09-06T09:06:38.137Z,47.30
2022-09-06T09:07:46.556Z,47.32
2022-09-06T09:09:06.952Z,47.73
2022-09-06T09:10:18.594Z,46.96
2022-09-06T09:11:23.844Z,47.86
2022-09-06T09:12:28.615Z,47.24
2022-09-06T09:13:55.478Z,47.74
2022-09-06T09:16:11.045Z,48.18
2022-09-06T09:17:16.431Z,47.99
2022-09-06T09:18:22.151Z,48.26
2022-09-06T09:19:24.333Z,48.32
2022-09-06T09:20:27.679Z,48.67
2022-09-06T09:21:37.179Z,48.05
2022-09-06T09:22:40.479Z,49.15
2022-09-06T09:23:45.170Z,49.96
2022-09-06T09:24:49.275Z,47.56
2022-09-06T09:25:55.056Z,47.13
2022-09-06T09:27:03.502Z,48.28
2022-09-06T09:28:09.144Z,47.16
2022-09-06T09:29:13.443Z,47.03
2022-09-06T09:31:23.637Z,46.29
2022-09-06T09:32:31.911Z,46.09
2022-09-06T09:33:35.912Z,45.96
2022-09-06T09:34:38.913Z,45.50
2022-09-06T09:35:41.607Z,44.79
2022-09-06T09:38:04.911Z,45.36
2022-09-06T09:39:10.866Z,46.01
2022-09-06T09:40:29.345Z,46.06
2022-09-06T09:41:33.852Z,45.69
2022-09-06T09:42:36.662Z,46.26
2022-09-06T09:43:45.205Z,46.03
2022-09-06T09:44:47.294Z,46.49
2022-09-06T09:46:25.075Z,46.70
2022-09-06T09:47:30.448Z,46.32
2022-09-06T09:48:32.540Z,47.15
2022-09-06T09:49:35.549Z,46.61
2022-09-06T09:50:37.801Z,47.85
2022-09-06T09:51:46.397Z,47.21
2022-09-06T09:52:48.314Z,47.17
2022-09-06T09:53:59.032Z,47.38
2022-09-06T09:55:04.367Z,47.01
2022-09-06T09:56:07.466Z,48.21
2022-09-06T09:57:19.808Z,47.68
2022-09-06T09:58:25.454Z,48.16
2022-09-06T09:59:34.146Z,47.54
2022-09-06T10:00:39.097Z,47.06
2022-09-06T10:01:42.086Z,47.06
2022-09-06T10:02:44.192Z,48.10
2022-09-06T10:05:03.848Z,46.95
2022-09-06T10:07:17.127Z,47.41
2022-09-06T10:08:23.821Z,47.55
2022-09-06T10:09:33.430Z,48.16
2022-09-06T10:10:41.596Z,47.82
2022-09-06T10:11:52.909Z,48.29
2022-09-06T10:13:15.717Z,47.12
2022-09-06T10:14:42.523Z,46.89
2022-09-06T10:15:44.544Z,47.17
2022-09-06T10:16:46.916Z,46.68
2022-09-06T10:17:50.913Z,47.42
2022-09-06T10:18:52.849Z,47.97
2022-09-06T10:19:55.188Z,47.37
2022-09-06T10:21:04.643Z,46.45
2022-09-06T10:22:12.956Z,46.44
2022-09-06T10:26:12.220Z,45.99
2022-09-06T10:27:17.956Z,46.67
2022-09-06T10:28:31.955Z,46.06
2022-09-06T10:29:52.634Z,45.78
2022-09-06T10:31:26.112Z,45.12
2022-09-06T10:32:47.853Z,45.05
2022-09-06T10:34:16.321Z,45.10
2022-09-06T10:35:28.011Z,44.80
2022-09-06T10:36:50.784Z,45.17
2022-09-06T10:37:59.442Z,45.51
2022-09-06T10:39:17.524Z,45.97
2022-09-06T10:40:35.761Z,45.30
2022-09-06T10:41:44.334Z,45.24
2022-09-06T10:42:49.963Z,45.13
2022-09-06T10:44:09.680Z,44.48
2022-09-06T10:45:30.182Z,45.11
2022-09-06T10:46:35.677Z,45.47
2022-09-06T10:47:56.984Z,45.29
2022-09-06T10:48:59.394Z,44.24
2022-09-06T10:50:03.701Z,44.41
2022-09-06T10:51:24.797Z,44.72
2022-09-06T10:52:33.860Z,45.24
2022-09-06T10:53:51.508Z,46.00
2022-09-06T10:54:57.214Z,46.03
2022-09-06T10:56:13.552Z,46.88
2022-09-06T10:58:29.823Z,47.46
2022-09-06T10:59:52.026Z,47.74
2022-09-06T11:00:54.923Z,47.17
2022-09-06T11:02:06.985Z,46.33
2022-09-06T11:05:48.310Z,45.59
2022-09-06T11:06:54.127Z,45.46
2022-09-06T11:09:15.718Z,46.17
2022-09-06T11:10:30.433Z,46.44
2022-09-06T11:11:42.244Z,46.03
2022-09-06T11:12:54.451Z,46.37
2022-09-06T11:13:56.336Z,46.35
2022-09-06T11:15:02.751Z,46.42
2022-09-06T11:16:08.800Z,46.30
2022-09-06T11:17:23.577Z,45.78
2022-09-06T11:18:41.865Z,45.95
2022-09-06T11:21:38.031Z,46.29
2022-09-06T11:23:04.435Z,45.26
2022-09-06T11:24:17.922Z,45.83
2022-09-06T11:25:55.488Z,45.89
2022-09-06T11:27:07.447Z,45.98
2022-09-06T11:28:13.665Z,45.97
2022-09-06T11:29:25.855Z,46.45
2022-09-06T11:30:29.654Z,45.57
2022-09-06T11:32:42.946Z,44.61
2022-09-06T11:33:45.118Z,45.32
2022-09-06T11:34:56.604Z,45.21
2022-09-06T11:36:17.523Z,44.69
2022-09-06T11:38:39.610Z,45.23
2022-09-06T11:40:50.876Z,45.06
2022-09-06T11:41:53.214Z,45.51
2022-09-06T11:42:58.815Z,45.82
2022-09-06T11:44:01.360Z,45.65
2022-09-06T11:45:22.579Z,46.02
2022-09-06T11:46:39.555Z,46.02
2022-09-06T11:47:44.407Z,46.28
2022-09-06T11:49:09.300Z,46.59
2022-09-06T11:50:27.507Z,46.54
2022-09-06T11:51:38.888Z,46.78
2022-09-06T11:53:01.486Z,46.65
2022-09-06T11:54:16.363Z,45.77
2022-09-06T11:55:22.835Z,46.10
2022-09-06T11:56:33.099Z,44.01
2022-09-06T11:57:35.373Z,43.62
2022-09-06T11:58:47.004Z,44.14
2022-09-06T11:59:52.697Z,43.73
2022-09-06T12:01:16.834Z,43.66
2022-09-06T12:02:40.414Z,44.54
2022-09-06T12:04:06.698Z,43.83
2022-09-06T12:05:04.631Z,44.20
2022-09-06T12:06:28.054Z,44.10
2022-09-06T12:07:31.725Z,45.74
2022-09-06T12:08:33.874Z,44.12
2022-09-06T12:09:39.213Z,44.66
2022-09-06T12:10:48.093Z,44.07
2022-09-06T12:11:50.181Z,44.83
2022-09-06T12:12:52.198Z,46.36
2022-09-06T12:13:57.540Z,44.51
2022-09-06T12:15:03.641Z,44.62
2022-09-06T12:16:09.243Z,44.92
2022-09-06T12:17:19.041Z,45.16
2022-09-06T12:18:45.293Z,44.60
2022-09-06T12:19:50.702Z,44.57
2022-09-06T12:20:56.448Z,44.41
2022-09-06T12:21:58.457Z,45.20
2022-09-06T12:23:00.471Z,44.01
2022-09-06T12:24:04.866Z,44.71
2022-09-06T12:25:27.092Z,44.85
2022-09-06T12:26:53.201Z,45.15
2022-09-06T12:28:00.407Z,44.97
2022-09-06T12:29:06.049Z,45.04
2022-09-06T12:30:13.143Z,45.15
2022-09-06T12:31:39.672Z,44.49
2022-09-06T12:32:49.663Z,45.31
2022-09-06T12:33:52.520Z,44.04
2022-09-06T12:36:22.228Z,43.50
2022-09-06T12:37:36.569Z,42.87
2022-09-06T12:38:38.628Z,44.06
2022-09-06T12:39:44.268Z,42.84
2022-09-06T12:40:49.888Z,42.96
2022-09-06T12:41:58.541Z,43.94
2022-09-06T12:43:03.791Z,43.55
2022-09-06T12:44:07.087Z,43.60
2022-09-06T12:45:12.762Z,43.53
2022-09-06T12:46:16.622Z,43.82
2022-09-06T12:47:29.283Z,43.45
2022-09-06T12:48:34.052Z,41.87
2022-09-06T12:49:36.329Z,41.90
2022-09-06T12:50:39.989Z,42.52
2022-09-06T12:51:42.179Z,41.51
2022-09-06T12:52:47.691Z,42.03
2022-09-06T12:53:55.943Z,42.44
2022-09-06T12:54:58.123Z,42.06
2022-09-06T12:56:09.223Z,42.02
2022-09-06T12:57:14.701Z,41.24
2022-09-06T12:58:20.372Z,41.26
2022-09-06T12:59:24.480Z,41.51
2022-09-06T13:01:43.848Z,41.87
2022-09-06T13:03:04.973Z,41.84
2022-09-06T13:04:25.224Z,42.63
2022-09-06T13:05:28.346Z,42.46
2022-09-06T13:06:34.638Z,42.95
2022-09-06T13:07:40.270Z,43.04
2022-09-06T13:08:45.911Z,42.88
2022-09-06T13:09:51.556Z,43.03
2022-09-06T13:10:54.235Z,42.32
2022-09-06T13:12:09.395Z,42.64
2022-09-06T13:13:13.545Z,42.95
2022-09-06T13:14:25.589Z,42.96
2022-09-06T13:15:30.315Z,42.84
2022-09-06T13:16:39.277Z,42.90
2022-09-06T13:17:41.392Z,42.93
2022-09-06T13:18:44.458Z,43.03
2022-09-06T13:19:47.207Z,43.28
2022-09-06T13:21:10.724Z,43.26
2022-09-06T13:22:16.348Z,43.95
2022-09-06T13:23:20.433Z,43.40
2022-09-06T13:24:28.814Z,44.02
2022-09-06T13:25:31.037Z,43.42
2022-09-06T13:26:36.733Z,43.46
2022-09-06T13:27:42.397Z,43.63
2022-09-06T13:28:44.270Z,43.82
2022-09-06T13:29:55.901Z,43.84
2022-09-06T13:31:10.987Z,44.21
2022-09-06T13:32:13.475Z,44.15
2022-09-06T13:33:25.123Z,43.51
2022-09-06T13:34:32.772Z,43.71
2022-09-06T13:35:38.272Z,43.41
2022-09-06T13:36:44.585Z,43.35
2022-09-06T13:37:46.697Z,43.67
2022-09-06T13:38:48.944Z,43.41
2022-09-06T13:39:51.873Z,43.38
2022-09-06T13:41:11.658Z,43.40
2022-09-06T13:42:05.170Z,43.60
2022-09-06T13:43:12.645Z,42.96
2022-09-06T13:44:20.056Z,43.27
2022-09-06T13:45:28.210Z,43.55
2022-09-06T13:46:33.079Z,43.90
2022-09-06T13:47:35.202Z,42.98
2022-09-06T13:48:37.837Z,42.98
2022-09-06T13:49:39.936Z,43.34
2022-09-06T13:50:41.891Z,42.87
2022-09-06T13:51:43.776Z,42.98
2022-09-06T13:52:46.930Z,42.62
2022-09-06T13:53:49.809Z,41.07
2022-09-06T13:54:51.792Z,40.00
2022-09-06T13:55:53.701Z,40.65
2022-09-06T13:56:56.982Z,39.94
2022-09-06T13:57:59.095Z,40.80
2022-09-06T13:59:01.739Z,40.34
2022-09-06T14:00:05.810Z,40.97
2022-09-06T14:01:09.538Z,41.10
2022-09-06T14:02:13.429Z,40.35
2022-09-06T14:03:19.249Z,41.52
2022-09-06T14:04:21.434Z,41.21
2022-09-06T14:05:23.431Z,41.53
2022-09-06T14:06:26.536Z,42.04
2022-09-06T14:07:28.675Z,41.98
2022-09-06T14:08:55.739Z,42.25
2022-09-06T14:09:36.270Z,42.93
2022-09-06T14:10:38.587Z,42.88
2022-09-06T14:11:43.809Z,42.71
2022-09-06T14:13:03.117Z,42.74
2022-09-06T14:14:06.835Z,42.13
2022-09-06T14:15:10.223Z,42.18
2022-09-06T14:16:13.399Z,42.00
2022-09-06T14:17:16.127Z,41.85
2022-09-06T14:18:18.406Z,42.46
2022-09-06T14:19:20.548Z,41.90
2022-09-06T14:20:24.385Z,42.29
2022-09-06T14:21:27.439Z,42.17
2022-09-06T14:22:29.752Z,42.44
2022-09-06T14:23:33.219Z,42.36
2022-09-06T14:24:35.572Z,42.87
2022-09-06T14:25:37.729Z,43.05
2022-09-06T14:26:39.906Z,43.30
2022-09-06T14:27:42.049Z,43.17
2022-09-06T14:28:44.586Z,42.89
2022-09-06T14:29:47.046Z,43.88
2022-09-06T14:30:49.334Z,43.55
2022-09-06T14:31:51.411Z,43.05
2022-09-06T14:32:53.198Z,43.57
2022-09-06T14:33:56.260Z,43.39
2022-09-06T14:34:58.229Z,43.65
2022-09-06T14:36:01.965Z,43.51
2022-09-06T14:37:04.142Z,43.69
2022-09-06T14:38:06.351Z,43.40
2022-09-06T14:39:08.951Z,43.53
2022-09-06T14:40:23.578Z,43.43
2022-09-06T14:41:26.212Z,43.38
2022-09-06T14:42:28.382Z,44.14
2022-09-06T14:43:30.847Z,43.94
2022-09-06T14:44:33.013Z,44.23
2022-09-06T14:45:36.639Z,44.08
2022-09-06T14:46:38.804Z,44.44
2022-09-06T14:47:42.082Z,44.44
2022-09-06T14:48:45.669Z,44.63
2022-09-06T14:49:47.921Z,44.65
2022-09-06T14:50:50.070Z,44.70
2022-09-06T14:51:52.325Z,44.74
2022-09-06T14:52:54.464Z,44.69